createdAt,value
2022-08-07T00:00:36.249Z,17.41
2022-08-07T00:03:08.735Z,17.38
2022-08-07T00:05:37.052Z,17.33
2022-08-07T00:08:05.000Z,17.35
2022-08-07T00:10:34.895Z,17.38
2022-08-07T00:13:17.567Z,17.35
2022-08-07T00:15:51.652Z,17.38
2022-08-07T00:18:24.364Z,17.38
2022-08-07T00:20:53.447Z,17.34
2022-08-07T00:23:21.632Z,17.28
2022-08-07T00:25:58.135Z,17.27
2022-08-07T00:28:33.180Z,17.25
2022-08-07T00:31:01.299Z,17.19
2022-08-07T00:33:32.770Z,17.20
2022-08-07T00:36:00.311Z,17.10
2022-08-07T00:38:31.351Z,17.06
2022-08-07T00:41:03.157Z,17.05
2022-08-07T00:44:00.547Z,17.01
2022-08-07T00:46:17.397Z,16.93
2022-08-07T00:48:44.444Z,16.85
2022-08-07T00:51:18.140Z,16.83
2022-08-07T00:53:50.829Z,16.81
2022-08-07T00:56:33.979Z,16.78
2022-08-07T00:59:01.019Z,16.73
2022-08-07T01:01:28.730Z,16.70
2022-08-07T01:04:08.628Z,16.70
2022-08-07T01:06:39.144Z,16.70
2022-08-07T01:09:05.649Z,16.73
2022-08-07T01:12:27.805Z,16.73
2022-08-07T01:14:28.240Z,16.70
2022-08-07T01:16:55.513Z,16.69
2022-08-07T01:19:25.150Z,16.68
2022-08-07T01:22:04.042Z,16.69
2022-08-07T01:24:36.074Z,16.64
2022-08-07T01:27:19.544Z,16.60
2022-08-07T01:29:47.307Z,16.59
2022-08-07T01:32:14.289Z,16.58
2022-08-07T01:34:47.151Z,16.55
2022-08-07T01:37:19.326Z,16.54
2022-08-07T01:39:47.767Z,16.54
2022-08-07T01:42:37.725Z,16.53
2022-08-07T01:45:04.531Z,16.51
2022-08-07T01:48:30.133Z,16.53
2022-08-07T01:50:28.565Z,16.49
2022-08-07T01:52:58.514Z,16.44
2022-08-07T01:55:34.300Z,16.47
2022-08-07T01:58:29.099Z,16.44
2022-08-07T02:01:10.147Z,16.41
2022-08-07T02:04:09.108Z,16.45
2022-08-07T02:06:40.813Z,16.40
2022-08-07T02:09:11.809Z,16.39
2022-08-07T02:12:17.652Z,16.34
2022-08-07T02:14:50.137Z,16.32
2022-08-07T02:17:27.760Z,16.31
2022-08-07T02:20:09.496Z,16.29
2022-08-07T02:22:45.630Z,16.25
2022-08-07T02:25:17.272Z,16.26
2022-08-07T02:27:52.195Z,16.24
2022-08-07T02:30:22.066Z,16.15
2022-08-07T02:33:03.999Z,16.14
2022-08-07T02:36:28.564Z,16.13
2022-08-07T02:38:31.830Z,16.08
2022-08-07T02:40:59.998Z,16.09
2022-08-07T02:43:28.006Z,16.07
2022-08-07T02:46:01.985Z,16.04
2022-08-07T02:48:30.153Z,16.01
2022-08-07T02:51:05.570Z,16.02
2022-08-07T02:53:38.638Z,16.04
2022-08-07T02:56:13.046Z,15.97
2022-08-07T02:58:54.230Z,15.93
2022-08-07T03:01:35.499Z,15.95
2022-08-07T03:04:12.869Z,15.89
2022-08-07T03:06:44.830Z,15.87
2022-08-07T03:09:13.747Z,15.80
2022-08-07T03:11:52.529Z,15.80
2022-08-07T03:14:25.661Z,15.78
2022-08-07T03:16:52.555Z,15.74
2022-08-07T03:19:20.081Z,15.72
2022-08-07T03:21:50.779Z,15.72
2022-08-07T03:24:26.884Z,15.71
2022-08-07T03:26:58.871Z,15.68
2022-08-07T03:29:33.683Z,15.65
2022-08-07T03:32:05.150Z,15.61
2022-08-07T03:34:39.288Z,15.58
2022-08-07T03:37:12.407Z,15.53
2022-08-07T03:39:46.447Z,15.48
2022-08-07T03:42:27.131Z,15.46
2022-08-07T03:44:57.971Z,15.39
2022-08-07T03:47:25.201Z,15.34
2022-08-07T03:49:57.041Z,15.29
2022-08-07T03:52:27.321Z,15.28
2022-08-07T03:55:07.124Z,15.27
2022-08-07T03:58:34.395Z,15.23
2022-08-07T04:00:29.318Z,15.17
2022-08-07T04:02:58.861Z,15.11
2022-08-07T04:05:39.272Z,15.04
2022-08-07T04:08:11.361Z,15.02
2022-08-07T04:10:39.547Z,15.03
2022-08-07T04:13:15.135Z,15.07
2022-08-07T04:15:43.541Z,15.08
2022-08-07T04:18:57.083Z,15.13
2022-08-07T04:21:01.599Z,15.16
2022-08-07T04:23:43.212Z,15.17
2022-08-07T04:26:21.852Z,15.13
2022-08-07T04:28:48.753Z,15.15
2022-08-07T04:31:20.308Z,15.16
2022-08-07T04:34:02.830Z,15.17
2022-08-07T04:36:29.222Z,15.17
2022-08-07T04:38:56.436Z,15.17
2022-08-07T04:41:24.697Z,15.15
2022-08-07T04:44:12.977Z,15.18
2022-08-07T04:47:08.245Z,15.16
2022-08-07T04:49:57.974Z,15.13
2022-08-07T04:53:07.469Z,15.16
2022-08-07T04:58:13.072Z,15.18
2022-08-07T05:00:09.949Z,15.18
2022-08-07T05:02:39.534Z,15.21
2022-08-07T05:05:53.270Z,15.26
2022-08-07T05:08:59.713Z,15.26
2022-08-07T05:11:27.596Z,15.27
2022-08-07T05:14:55.368Z,15.36
2022-08-07T05:17:12.010Z,15.43
2022-08-07T05:19:44.851Z,15.52
2022-08-07T05:22:13.431Z,15.61
2022-08-07T05:24:57.119Z,15.70
2022-08-07T05:28:05.977Z,15.80
2022-08-07T05:30:25.066Z,15.91
2022-08-07T05:32:58.772Z,16.02
2022-08-07T05:35:33.337Z,16.17
2022-08-07T05:38:59.994Z,16.34
2022-08-07T05:41:12.155Z,16.55
2022-08-07T05:44:07.613Z,16.74
2022-08-07T05:46:34.815Z,17.04
2022-08-07T05:49:11.790Z,17.44
2022-08-07T05:51:40.107Z,17.88
2022-08-07T05:54:12.272Z,18.33
2022-08-07T05:56:55.452Z,18.82
2022-08-07T05:59:24.558Z,19.37
2022-08-07T06:01:51.750Z,19.93
2022-08-07T06:04:21.150Z,20.48
2022-08-07T06:06:56.518Z,21.10
2022-08-07T06:09:44.999Z,21.72
2022-08-07T06:12:17.194Z,22.33
2022-08-07T06:14:49.682Z,22.78
2022-08-07T06:17:19.477Z,23.20
2022-08-07T06:20:03.346Z,23.64
2022-08-07T06:22:38.853Z,24.02
2022-08-07T06:25:10.043Z,24.35
2022-08-07T06:27:43.996Z,24.64
2022-08-07T06:30:32.184Z,24.68
2022-08-07T06:33:10.037Z,24.87
2022-08-07T06:35:47.744Z,25.12
2022-08-07T06:38:28.742Z,25.51
2022-08-07T06:40:59.021Z,25.78
2022-08-07T06:43:27.595Z,26.00
2022-08-07T06:46:11.481Z,26.34
2022-08-07T06:48:42.190Z,26.47
2022-08-07T06:51:31.273Z,26.57
2022-08-07T06:55:28.141Z,26.62
2022-08-07T06:56:56.854Z,26.75
2022-08-07T07:00:14.271Z,27.01
2022-08-07T07:02:26.943Z,27.26
2022-08-07T07:05:12.589Z,27.04
2022-08-07T07:07:59.244Z,26.96
2022-08-07T07:10:35.121Z,27.18
2022-08-07T07:13:56.073Z,27.26
2022-08-07T07:16:18.014Z,27.43
2022-08-07T07:18:57.520Z,27.39
2022-08-07T07:22:04.058Z,27.50
2022-08-07T07:24:17.389Z,27.73
2022-08-07T07:26:51.831Z,27.96
2022-08-07T07:29:57.123Z,28.17
2022-08-07T07:32:14.014Z,28.00
2022-08-07T07:34:45.879Z,28.05
2022-08-07T07:37:44.435Z,28.26
2022-08-07T07:40:10.408Z,28.11
2022-08-07T07:42:43.810Z,28.11
2022-08-07T07:45:19.489Z,27.80
2022-08-07T07:47:53.327Z,27.86
2022-08-07T07:50:33.878Z,28.09
2022-08-07T07:53:20.188Z,28.44
2022-08-07T07:55:57.789Z,28.53
2022-08-07T07:58:31.319Z,28.60
2022-08-07T08:02:04.143Z,28.79
2022-08-07T08:04:11.615Z,28.96
2022-08-07T08:06:52.211Z,29.09
2022-08-07T08:09:29.467Z,29.05
2022-08-07T08:12:02.986Z,29.06
2022-08-07T08:14:34.426Z,29.08
2022-08-07T08:17:56.448Z,29.10
2022-08-07T08:20:19.626Z,29.17
2022-08-07T08:23:04.578Z,28.94
2022-08-07T08:25:56.317Z,28.74
2022-08-07T08:28:37.922Z,28.63
2022-08-07T08:31:08.639Z,28.61
2022-08-07T08:33:49.321Z,28.78
2022-08-07T08:36:30.092Z,28.63
2022-08-07T08:39:02.949Z,28.33
2022-08-07T08:41:58.533Z,28.06
2022-08-07T08:45:14.254Z,28.23
2022-08-07T08:48:12.372Z,28.44
2022-08-07T08:50:53.350Z,28.21
2022-08-07T08:53:32.290Z,28.39
2022-08-07T08:56:27.113Z,28.57
2022-08-07T08:59:16.409Z,28.67
2022-08-07T09:01:49.829Z,28.54
2022-08-07T09:04:33.783Z,28.44
2022-08-07T09:07:11.539Z,28.30
2022-08-07T09:09:59.922Z,28.14
2022-08-07T09:12:40.400Z,27.68
2022-08-07T09:16:21.760Z,27.81
2022-08-07T09:18:53.217Z,28.14
2022-08-07T09:21:33.955Z,28.27
2022-08-07T09:25:00.672Z,28.60
2022-08-07T09:27:38.404Z,28.88
2022-08-07T09:30:20.697Z,29.09
2022-08-07T09:33:52.937Z,29.27
2022-08-07T09:36:35.811Z,29.69
2022-08-07T09:39:52.671Z,29.89
2022-08-07T09:42:17.204Z,29.38
2022-08-07T09:47:42.586Z,29.19
2022-08-07T09:48:11.769Z,28.81
2022-08-07T09:50:59.629Z,28.85
2022-08-07T09:53:40.544Z,28.80
2022-08-07T09:56:37.589Z,28.88
2022-08-07T09:59:37.074Z,28.71
2022-08-07T10:03:08.553Z,28.92
2022-08-07T10:05:59.822Z,28.78
2022-08-07T10:08:45.213Z,28.82
2022-08-07T10:12:01.754Z,29.01
2022-08-07T10:14:47.511Z,29.07
2022-08-07T10:18:01.349Z,29.39
2022-08-07T10:20:51.913Z,29.46
2022-08-07T10:24:06.342Z,29.56
2022-08-07T10:26:53.229Z,29.57
2022-08-07T10:29:43.172Z,29.75
2022-08-07T10:32:51.257Z,29.94
2022-08-07T10:35:27.266Z,29.83
2022-08-07T10:38:56.624Z,29.50
2022-08-07T10:41:46.819Z,29.55
2022-08-07T10:44:38.386Z,29.84
2022-08-07T10:47:54.960Z,29.95
2022-08-07T10:50:25.849Z,30.07
2022-08-07T10:53:05.183Z,29.92
2022-08-07T10:55:43.976Z,29.54
2022-08-07T10:58:46.209Z,29.36
2022-08-07T11:01:51.789Z,29.14
2022-08-07T11:04:57.828Z,29.02
2022-08-07T11:07:59.182Z,28.90
2022-08-07T11:10:50.011Z,28.69
2022-08-07T11:14:44.699Z,28.81
2022-08-07T11:17:07.325Z,29.10
2022-08-07T11:19:50.145Z,29.14
2022-08-07T11:22:45.816Z,29.44
2022-08-07T11:25:42.513Z,29.31
2022-08-07T11:28:21.264Z,29.35
2022-08-07T11:30:51.246Z,29.48
2022-08-07T11:33:54.226Z,29.66
2022-08-07T11:36:45.097Z,29.73
2022-08-07T11:39:59.795Z,29.92
2022-08-07T11:42:59.079Z,30.01
2022-08-07T11:45:37.781Z,30.19
2022-08-07T11:49:27.454Z,30.22
2022-08-07T11:52:14.500Z,30.11
2022-08-07T11:54:54.837Z,30.17
2022-08-07T11:58:00.878Z,30.36
2022-08-07T12:01:00.213Z,30.47
2022-08-07T12:03:53.082Z,30.83
2022-08-07T12:06:40.228Z,30.68
2022-08-07T12:09:35.780Z,30.07
2022-08-07T12:12:12.412Z,29.75
2022-08-07T12:14:55.734Z,29.85
2022-08-07T12:17:34.143Z,29.95
2022-08-07T12:20:30.362Z,30.02
2022-08-07T12:24:06.789Z,30.02
2022-08-07T12:26:46.801Z,29.93
2022-08-07T12:29:52.550Z,29.62
2022-08-07T12:32:40.163Z,29.66
2022-08-07T12:35:12.519Z,29.78
2022-08-07T12:38:10.353Z,29.84
2022-08-07T12:40:47.216Z,29.48
2022-08-07T12:44:02.975Z,29.39
2022-08-07T12:46:15.843Z,29.38
2022-08-07T12:48:56.546Z,29.27
2022-08-07T12:51:46.415Z,29.11
2022-08-07T12:54:54.666Z,29.02
2022-08-07T12:58:00.283Z,28.81
2022-08-07T13:00:30.988Z,28.96
2022-08-07T13:03:27.042Z,29.29
2022-08-07T13:06:21.838Z,29.36
2022-08-07T13:10:18.930Z,29.36
2022-08-07T13:12:20.109Z,29.44
2022-08-07T13:15:23.705Z,29.53
2022-08-07T13:18:26.440Z,29.65
2022-08-07T13:21:07.230Z,29.61
2022-08-07T13:24:04.288Z,29.49
2022-08-07T13:26:46.154Z,29.47
2022-08-07T13:29:18.538Z,29.48
2022-08-07T13:32:23.752Z,29.43
2022-08-07T13:35:08.541Z,29.43
2022-08-07T13:37:58.502Z,29.58
2022-08-07T13:40:42.714Z,29.50
2022-08-07T13:43:13.535Z,29.44
2022-08-07T13:46:12.830Z,29.30
2022-08-07T13:48:35.103Z,29.21
2022-08-07T13:51:27.482Z,29.24
2022-08-07T13:54:01.628Z,29.36
2022-08-07T13:56:35.461Z,29.33
2022-08-07T13:59:12.842Z,29.23
2022-08-07T14:02:16.604Z,29.27
2022-08-07T14:04:54.509Z,29.37
2022-08-07T14:07:30.416Z,29.46
2022-08-07T14:10:16.540Z,29.43
2022-08-07T14:12:54.867Z,29.17
2022-08-07T14:15:35.097Z,29.17
2022-08-07T14:18:30.647Z,29.14
2022-08-07T14:22:04.027Z,28.91
2022-08-07T14:24:33.587Z,28.94
2022-08-07T14:28:09.950Z,28.91
2022-08-07T14:30:09.549Z,28.74
2022-08-07T14:32:47.153Z,28.81
2022-08-07T14:35:43.264Z,28.94
2022-08-07T14:38:09.490Z,28.93
2022-08-07T14:41:12.419Z,28.90
2022-08-07T14:43:57.950Z,28.81
2022-08-07T14:46:35.700Z,28.72
2022-08-07T14:49:55.938Z,28.78
2022-08-07T14:52:04.656Z,28.85
2022-08-07T14:57:28.975Z,29.00
2022-08-07T15:00:29.870Z,29.07
2022-08-07T15:03:00.020Z,29.09
2022-08-07T15:05:27.668Z,29.06
2022-08-07T15:07:58.252Z,28.91
2022-08-07T15:10:29.835Z,28.75
2022-08-07T15:13:01.077Z,28.74
2022-08-07T15:15:38.901Z,28.58
2022-08-07T15:21:07.966Z,28.36
2022-08-07T15:26:35.322Z,27.93
2022-08-07T15:34:50.731Z,27.75
2022-08-07T15:40:34.503Z,27.70
2022-08-07T15:43:11.025Z,27.67
2022-08-07T15:54:34.265Z,27.19
2022-08-07T15:57:02.668Z,27.10
2022-08-07T15:59:39.762Z,27.12
2022-08-07T16:02:15.226Z,27.17
2022-08-07T16:04:43.985Z,27.18
2022-08-07T16:08:29.039Z,27.27
2022-08-07T16:10:14.863Z,27.29
2022-08-07T16:13:17.570Z,27.17
2022-08-07T16:16:47.603Z,27.00
2022-08-07T16:19:58.931Z,27.04
2022-08-07T16:22:33.647Z,27.02
2022-08-07T16:25:54.666Z,27.00
2022-08-07T16:29:18.660Z,27.08
2022-08-07T16:31:51.477Z,27.14
2022-08-07T16:34:32.243Z,26.98
2022-08-07T16:38:03.601Z,26.84
2022-08-07T16:40:28.884Z,26.71
2022-08-07T16:44:02.526Z,26.48
2022-08-07T16:47:06.758Z,26.37
2022-08-07T16:50:27.290Z,26.46
2022-08-07T16:53:14.959Z,26.43
2022-08-07T16:56:11.170Z,26.38
2022-08-07T16:59:14.440Z,26.42
2022-08-07T17:02:05.066Z,26.38
2022-08-07T17:04:51.186Z,26.26
2022-08-07T17:07:57.780Z,26.16
2022-08-07T17:10:54.383Z,26.10
2022-08-07T17:13:41.297Z,25.91
2022-08-07T17:16:22.319Z,25.76
2022-08-07T17:18:51.418Z,25.65
2022-08-07T17:21:51.110Z,25.67
2022-08-07T17:24:47.143Z,25.63
2022-08-07T17:27:36.619Z,25.60
2022-08-07T17:30:15.641Z,25.70
2022-08-07T17:34:09.179Z,25.73
2022-08-07T17:36:02.449Z,25.73
2022-08-07T17:38:50.201Z,25.62
2022-08-07T17:42:01.823Z,25.69
2022-08-07T17:44:45.646Z,25.61
2022-08-07T17:47:38.133Z,25.58
2022-08-07T17:50:19.307Z,25.46
2022-08-07T17:52:52.145Z,25.37
2022-08-07T17:55:55.728Z,25.41
2022-08-07T17:59:20.120Z,25.40
2022-08-07T18:01:56.807Z,25.34
2022-08-07T18:04:31.168Z,25.35
2022-08-07T18:07:20.095Z,25.32
2022-08-07T18:10:07.311Z,25.26
2022-08-07T18:12:51.786Z,25.17
2022-08-07T18:15:35.636Z,25.08
2022-08-07T18:18:44.900Z,25.02
2022-08-07T18:21:42.065Z,24.95
2022-08-07T18:24:33.177Z,24.89
2022-08-07T18:27:38.270Z,24.84
2022-08-07T18:30:31.875Z,24.84
2022-08-07T18:33:28.942Z,24.82
2022-08-07T18:36:32.888Z,24.76
2022-08-07T18:40:07.209Z,24.66
2022-08-07T18:42:44.670Z,24.61
2022-08-07T18:45:43.341Z,24.55
2022-08-07T18:50:04.860Z,24.56
2022-08-07T18:52:51.787Z,24.46
2022-08-07T18:54:50.986Z,24.33
2022-08-07T18:57:37.119Z,24.22
2022-08-07T19:00:33.157Z,24.14
2022-08-07T19:03:38.016Z,24.09
2022-08-07T19:06:33.942Z,24.04
2022-08-07T19:09:56.643Z,23.99
2022-08-07T19:12:53.445Z,23.93
2022-08-07T19:16:05.877Z,23.87
2022-08-07T19:19:02.532Z,23.83
2022-08-07T19:22:05.081Z,23.77
2022-08-07T19:24:44.503Z,23.70
2022-08-07T19:28:58.565Z,23.58
2022-08-07T19:31:05.750Z,23.50
2022-08-07T19:33:10.061Z,23.43
2022-08-07T19:35:42.087Z,23.38
2022-08-07T19:38:16.049Z,23.31
2022-08-07T19:40:50.641Z,23.31
2022-08-07T19:43:43.518Z,23.27
2022-08-07T19:46:19.217Z,23.18
2022-08-07T19:49:00.104Z,23.12
2022-08-07T19:51:51.007Z,23.04
2022-08-07T19:54:30.888Z,22.97
2022-08-07T19:58:03.262Z,22.94
2022-08-07T20:00:08.819Z,22.88
2022-08-07T20:03:01.643Z,22.80
2022-08-07T20:06:00.592Z,22.72
2022-08-07T20:08:28.498Z,22.63
2022-08-07T20:11:02.171Z,22.55
2022-08-07T20:13:42.346Z,22.47
2022-08-07T20:16:32.186Z,22.40
2022-08-07T20:18:59.183Z,22.33
2022-08-07T20:21:29.131Z,22.25
2022-08-07T20:24:16.649Z,22.19
2022-08-07T20:26:52.128Z,22.13
2022-08-07T20:29:49.072Z,22.11
2022-08-07T20:32:23.121Z,22.07
2022-08-07T20:35:00.561Z,22.05
2022-08-07T20:37:46.849Z,21.99
2022-08-07T20:40:31.170Z,21.93
2022-08-07T20:43:01.071Z,21.90
2022-08-07T20:45:33.555Z,21.86
2022-08-07T20:48:28.667Z,21.73
2022-08-07T20:51:00.159Z,21.67
2022-08-07T20:54:02.275Z,21.62
2022-08-07T20:56:26.062Z,21.58
2022-08-07T20:58:55.835Z,21.57
2022-08-07T21:01:26.778Z,21.55
2022-08-07T21:04:21.992Z,21.50
2022-08-07T21:06:53.416Z,21.51
2022-08-07T21:09:24.217Z,21.48
2022-08-07T21:11:57.042Z,21.45
2022-08-07T21:14:33.271Z,21.42
2022-08-07T21:18:00.976Z,21.37
2022-08-07T21:20:01.015Z,21.34
2022-08-07T21:22:38.559Z,21.30
2022-08-07T21:25:12.035Z,21.28
2022-08-07T21:28:02.120Z,21.24
2022-08-07T21:30:46.887Z,21.24
2022-08-07T21:33:21.433Z,21.24
2022-08-07T21:36:12.197Z,21.21
2022-08-07T21:39:46.626Z,21.14
2022-08-07T21:42:48.178Z,21.14
2022-08-07T21:46:08.582Z,21.12
2022-08-07T21:48:41.524Z,21.06
2022-08-07T21:51:20.306Z,21.03
2022-08-07T21:53:54.961Z,20.96
2022-08-07T21:56:37.701Z,20.90
2022-08-07T21:59:22.379Z,20.87
2022-08-07T22:02:11.091Z,20.82
2022-08-07T22:04:51.108Z,20.76
2022-08-07T22:07:31.581Z,20.69
2022-08-07T22:10:12.880Z,20.63
2022-08-07T22:12:53.689Z,20.62
2022-08-07T22:16:39.867Z,20.55
2022-08-07T22:18:49.789Z,20.41
2022-08-07T22:22:02.799Z,20.39
2022-08-07T22:25:07.564Z,20.36
2022-08-07T22:28:29.832Z,20.29
2022-08-07T22:30:31.636Z,20.27
2022-08-07T22:33:12.824Z,20.25
2022-08-07T22:36:04.425Z,20.18
2022-08-07T22:38:48.174Z,20.15
2022-08-07T22:41:29.183Z,20.12
2022-08-07T22:44:13.293Z,20.06
2022-08-07T22:47:23.180Z,20.02
2022-08-07T22:50:13.232Z,19.94
2022-08-07T22:53:15.358Z,19.92
2022-08-07T22:55:57.130Z,19.86
2022-08-07T22:58:38.178Z,19.79
2022-08-07T23:01:23.582Z,19.74
2022-08-07T23:04:16.409Z,19.74
2022-08-07T23:07:39.713Z,19.74
2022-08-07T23:10:41.849Z,19.72
2022-08-07T23:13:49.009Z,19.69
2022-08-07T23:16:54.615Z,19.65
2022-08-07T23:20:06.491Z,19.65
2022-08-07T23:22:52.556Z,19.63
2022-08-07T23:25:37.896Z,19.64
2022-08-07T23:28:29.474Z,19.62
2022-08-07T23:31:42.874Z,19.60
2022-08-07T23:34:38.244Z,19.53
2022-08-07T23:37:29.440Z,19.50
2022-08-07T23:40:07.399Z,19.46
2022-08-07T23:43:16.788Z,19.48
2022-08-07T23:46:03.643Z,19.38
2022-08-07T23:49:15.636Z,19.32
2022-08-07T23:53:01.266Z,19.30
2022-08-07T23:54:59.345Z,19.21
2022-08-07T23:57:44.548Z,19.15
